Time;durP1;ratioP1;P1;durP2;ratioP2;P2;SDS_P1;SDS_P2;PMS_P1;PMS_P2;Temp;Humidity;BMP_temperature;BMP_pressure;BME280_temperature;BME280_humidity;BME280_pressure;Samples;Min_cycle;Max_cycle;Signal;HPM_P1;HPM_P2
2022/12/06 00:02:00;;;;;;;;;;;28.60;91.10;;;;;;5127206;28;19985;-42
2022/12/06 00:04:26;;;;;;;;;;;28.50;91.00;;;;;;5127254;28;19941;-41
2022/12/06 00:06:53;;;;;;;;;;;28.50;91.10;;;;;;5126863;28;19974;-39
2022/12/06 00:09:21;;;;;;;;;;;28.50;91.20;;;;;;5127410;28;19903;-45
2022/12/06 00:11:47;;;;;;;;;;;28.50;91.40;;;;;;5126909;28;19904;-44
2022/12/06 00:14:13;;;;;;;;;;;28.50;91.30;;;;;;5127863;28;19911;-39
2022/12/06 00:16:39;;;;;;;;;;;28.40;91.40;;;;;;5115933;28;19947;-39
2022/12/06 00:19:06;;;;;;;;;;;28.40;91.30;;;;;;5112659;27;19915;-41
2022/12/06 00:21:33;;;;;;;;;;;28.40;91.40;;;;;;5113397;28;20184;-41
2022/12/06 00:24:01;;;;;;;;;;;28.40;91.40;;;;;;5125892;28;20077;-40
2022/12/06 00:26:27;;;;;;;;;;;28.30;91.30;;;;;;5112223;28;20096;-44
2022/12/06 00:28:54;;;;;;;;;;;28.30;91.40;;;;;;5118444;28;19914;-46
2022/12/06 00:31:22;;;;;;;;;;;28.30;91.50;;;;;;5125606;28;19904;-40
2022/12/06 00:33:48;;;;;;;;;;;28.30;91.50;;;;;;5104967;28;19957;-44
2022/12/06 00:36:19;;;;;;;;;;;28.30;91.70;;;;;;5104789;28;20137;-40
2022/12/06 00:38:45;;;;;;;;;;;28.30;91.70;;;;;;5116992;28;20179;-42
2022/12/06 00:41:15;;;;;;;;;;;28.30;91.80;;;;;;5134803;27;19903;-47
2022/12/06 00:43:42;;;;;;;;;;;28.30;91.80;;;;;;5123973;28;19907;-41
2022/12/06 00:46:11;;;;;;;;;;;28.30;91.90;;;;;;5123996;28;19982;-40
2022/12/06 00:48:37;;;;;;;;;;;28.30;92.00;;;;;;5125399;28;20122;-40
2022/12/06 00:51:03;;;;;;;;;;;28.20;92.00;;;;;;5124459;28;19907;-39
2022/12/06 00:53:30;;;;;;;;;;;28.20;92.10;;;;;;5125783;28;20163;-47
2022/12/06 00:55:56;;;;;;;;;;;28.20;92.20;;;;;;5125586;28;20134;-39
2022/12/06 00:58:22;;;;;;;;;;;28.20;92.20;;;;;;5125679;28;19907;-40
2022/12/06 01:00:48;;;;;;;;;;;28.20;92.30;;;;;;5125075;28;19912;-40
2022/12/06 01:03:15;;;;;;;;;;;28.20;92.40;;;;;;5125527;28;19908;-41
2022/12/06 01:05:42;;;;;;;;;;;28.20;92.40;;;;;;5122634;27;19910;-43
2022/12/06 01:08:08;;;;;;;;;;;28.20;92.50;;;;;;5135526;27;19952;-45
2022/12/06 01:10:35;;;;;;;;;;;28.20;92.60;;;;;;5124755;27;19904;-42
2022/12/06 01:13:01;;;;;;;;;;;28.20;92.70;;;;;;5113415;28;19915;-44
2022/12/06 01:15:27;;;;;;;;;;;28.10;92.70;;;;;;5124346;28;20239;-45
2022/12/06 01:17:53;;;;;;;;;;;28.10;92.70;;;;;;5125355;28;19915;-47
2022/12/06 01:20:19;;;;;;;;;;;28.10;92.70;;;;;;5120235;28;19903;-41
2022/12/06 01:22:45;;;;;;;;;;;28.10;92.70;;;;;;5111416;28;19908;-41
2022/12/06 01:25:11;;;;;;;;;;;28.00;92.70;;;;;;5113386;28;19949;-47
2022/12/06 01:27:38;;;;;;;;;;;28.00;92.70;;;;;;5118048;28;19978;-40
2022/12/06 01:30:05;;;;;;;;;;;28.00;92.70;;;;;;5113178;28;20233;-39
2022/12/06 01:32:31;;;;;;;;;;;27.90;92.70;;;;;;5112127;28;19908;-38
2022/12/06 01:34:57;;;;;;;;;;;27.90;92.70;;;;;;5111397;28;20184;-45
2022/12/06 01:37:23;;;;;;;;;;;27.90;92.80;;;;;;5124916;28;19908;-40
2022/12/06 01:39:50;;;;;;;;;;;27.90;92.90;;;;;;5122243;28;19900;-43
2022/12/06 01:42:16;;;;;;;;;;;27.80;92.70;;;;;;5113606;28;19908;-38
2022/12/06 01:44:44;;;;;;;;;;;27.80;92.90;;;;;;5104671;28;19903;-40
2022/12/06 01:47:22;;;;;;;;;;;27.80;93.00;;;;;;5103939;28;19920;-44
2022/12/06 01:49:53;;;;;;;;;;;27.80;93.00;;;;;;5104130;28;19910;-42
2022/12/06 01:52:23;;;;;;;;;;;27.70;93.00;;;;;;5104497;28;19907;-45
2022/12/06 01:54:49;;;;;;;;;;;27.70;93.00;;;;;;5104562;28;19930;-44
2022/12/06 01:57:16;;;;;;;;;;;27.70;92.90;;;;;;5111886;28;19908;-42
2022/12/06 01:59:43;;;;;;;;;;;27.70;93.00;;;;;;5118214;28;20200;-42
2022/12/06 02:02:09;;;;;;;;;;;27.70;93.00;;;;;;5128813;28;19904;-41
2022/12/06 02:04:35;;;;;;;;;;;27.70;93.10;;;;;;5113146;28;19904;-41
2022/12/06 02:07:02;;;;;;;;;;;27.70;93.00;;;;;;5104085;28;19907;-45
2022/12/06 02:09:29;;;;;;;;;;;27.70;93.00;;;;;;5104880;28;19947;-42
2022/12/06 02:11:55;;;;;;;;;;;27.70;93.00;;;;;;5104313;28;19904;-46
2022/12/06 02:14:24;;;;;;;;;;;27.60;93.00;;;;;;5104128;28;19950;-44
2022/12/06 02:17:08;;;;;;;;;;;27.60;93.00;;;;;;5104806;28;19912;-40
2022/12/06 02:19:47;;;;;;;;;;;27.60;93.00;;;;;;5111564;28;19911;-45
2022/12/06 02:22:27;;;;;;;;;;;27.60;93.20;;;;;;5112677;28;19985;-38
2022/12/06 02:24:59;;;;;;;;;;;27.60;93.20;;;;;;5111922;28;19903;-46
2022/12/06 02:27:44;;;;;;;;;;;27.50;93.20;;;;;;5112937;28;19915;-44
2022/12/06 02:30:17;;;;;;;;;;;27.50;93.20;;;;;;5114876;28;19939;-53
2022/12/06 02:32:51;;;;;;;;;;;27.50;93.30;;;;;;5113404;28;19908;-40
2022/12/06 02:35:26;;;;;;;;;;;27.50;93.40;;;;;;5124460;28;20170;-40
2022/12/06 02:38:18;;;;;;;;;;;27.50;93.50;;;;;;5125030;28;19922;-40
2022/12/06 02:40:56;;;;;;;;;;;27.50;93.50;;;;;;5072377;28;20236;-42
2022/12/06 02:43:30;;;;;;;;;;;27.60;93.70;;;;;;5114044;28;19974;-39
2022/12/06 02:45:58;;;;;;;;;;;27.60;93.70;;;;;;5128435;28;19911;-40
2022/12/06 02:48:25;;;;;;;;;;;27.60;93.70;;;;;;5124532;28;19947;-38
2022/12/06 02:50:59;;;;;;;;;;;27.60;93.80;;;;;;5127207;28;19941;-40
2022/12/06 02:53:26;;;;;;;;;;;27.50;93.70;;;;;;5127199;28;19912;-38
2022/12/06 02:55:53;;;;;;;;;;;27.50;93.70;;;;;;5126867;27;19935;-39
2022/12/06 02:58:19;;;;;;;;;;;27.50;93.80;;;;;;5122404;28;19953;-39
2022/12/06 03:00:49;;;;;;;;;;;27.50;93.70;;;;;;5127275;28;19919;-47
2022/12/06 03:03:36;;;;;;;;;;;27.50;93.70;;;;;;5122992;28;19908;-40
2022/12/06 03:06:02;;;;;;;;;;;27.50;93.70;;;;;;5107188;27;19912;-47
2022/12/06 03:08:47;;;;;;;;;;;27.40;93.70;;;;;;5130367;27;19929;-41
2022/12/06 03:11:13;;;;;;;;;;;27.40;93.80;;;;;;5148333;27;19903;-47
2022/12/06 03:13:58;;;;;;;;;;;27.40;94.00;;;;;;5135371;27;19964;-43
2022/12/06 03:16:46;;;;;;;;;;;27.40;93.90;;;;;;5127720;28;19974;-45
2022/12/06 03:19:20;;;;;;;;;;;27.30;93.90;;;;;;5127754;28;19908;-39
2022/12/06 03:22:05;;;;;;;;;;;27.30;94.00;;;;;;5127552;28;19918;-43
2022/12/06 03:24:33;;;;;;;;;;;27.30;94.00;;;;;;5127621;28;19908;-46
2022/12/06 03:27:00;;;;;;;;;;;27.30;94.00;;;;;;5124629;28;20219;-43
2022/12/06 03:29:29;;;;;;;;;;;27.30;94.10;;;;;;5120552;28;19975;-43
2022/12/06 03:31:57;;;;;;;;;;;27.20;94.10;;;;;;5125620;27;19899;-39
2022/12/06 03:34:29;;;;;;;;;;;27.20;94.30;;;;;;5147493;27;20239;-49
2022/12/06 03:36:56;;;;;;;;;;;27.20;94.30;;;;;;5121786;27;20128;-40
2022/12/06 03:39:30;;;;;;;;;;;27.20;94.30;;;;;;5125511;28;19914;-43
2022/12/06 03:41:57;;;;;;;;;;;27.10;94.30;;;;;;5126935;27;20212;-39
2022/12/06 03:44:24;;;;;;;;;;;27.10;94.20;;;;;;5114235;28;19904;-43
2022/12/06 03:46:53;;;;;;;;;;;27.10;94.20;;;;;;5106571;28;19900;-46
2022/12/06 03:49:23;;;;;;;;;;;27.10;94.20;;;;;;5106115;28;19904;-41
2022/12/06 03:51:49;;;;;;;;;;;27.10;94.20;;;;;;5124838;27;19910;-39
2022/12/06 03:54:16;;;;;;;;;;;27.20;94.10;;;;;;5147224;27;19985;-39
2022/12/06 03:56:42;;;;;;;;;;;27.10;94.10;;;;;;5139329;27;19904;-44
2022/12/06 03:59:09;;;;;;;;;;;27.10;94.20;;;;;;5121726;28;19919;-42
2022/12/06 04:01:36;;;;;;;;;;;27.10;94.20;;;;;;5125045;27;19906;-41
2022/12/06 04:04:02;;;;;;;;;;;27.10;94.20;;;;;;5117531;28;19939;-44
2022/12/06 04:06:28;;;;;;;;;;;27.10;94.20;;;;;;5106569;28;19970;-46
2022/12/06 04:09:51;;;;;;;;;;;27.10;94.30;;;;;;5106692;28;19915;-47
2022/12/06 04:11:43;;;;;;;;;;;27.00;94.40;;;;;;5106073;28;20126;-38
2022/12/06 04:14:10;;;;;;;;;;;27.00;94.40;;;;;;5106618;28;19911;-39
2022/12/06 04:19:22;;;;;;;;;;;27.00;94.40;;;;;;5105831;28;19914;-38
2022/12/06 04:24:33;;;;;;;;;;;27.00;94.50;;;;;;5147107;27;20168;-47
2022/12/06 04:40:41;;;;;;;;;;;27.00;94.70;;;;;;5105504;28;20207;-43
2022/12/06 04:45:52;;;;;;;;;;;27.00;94.70;;;;;;5105609;28;19974;-39
2022/12/06 04:48:18;;;;;;;;;;;26.90;94.60;;;;;;5105671;28;19911;-42
2022/12/06 04:50:50;;;;;;;;;;;26.90;94.60;;;;;;5105500;28;19907;-41
2022/12/06 04:53:17;;;;;;;;;;;26.90;94.60;;;;;;5105751;28;20065;-42
2022/12/06 04:55:47;;;;;;;;;;;26.90;94.50;;;;;;5105268;28;19904;-38
2022/12/06 04:58:15;;;;;;;;;;;26.90;94.70;;;;;;5105577;28;19932;-38
2022/12/06 05:00:42;;;;;;;;;;;26.80;94.80;;;;;;5104924;28;19912;-45
2022/12/06 05:03:12;;;;;;;;;;;26.80;94.90;;;;;;5105453;28;19908;-38
2022/12/06 05:05:38;;;;;;;;;;;26.80;95.00;;;;;;5104746;28;19899;-38
2022/12/06 05:08:05;;;;;;;;;;;26.80;95.00;;;;;;5104771;28;19908;-41
2022/12/06 05:10:31;;;;;;;;;;;26.80;95.00;;;;;;5105084;28;19907;-41
2022/12/06 05:12:58;;;;;;;;;;;26.70;95.00;;;;;;5105141;28;20192;-42
2022/12/06 05:15:24;;;;;;;;;;;26.70;94.90;;;;;;5111196;28;19899;-40
2022/12/06 05:17:50;;;;;;;;;;;26.70;94.90;;;;;;5109940;28;19916;-39
2022/12/06 05:20:17;;;;;;;;;;;26.70;94.90;;;;;;5107248;28;20116;-41
2022/12/06 05:22:43;;;;;;;;;;;26.70;94.80;;;;;;5112583;28;19915;-43
2022/12/06 05:25:09;;;;;;;;;;;26.70;94.80;;;;;;5104639;28;19939;-42
2022/12/06 05:27:35;;;;;;;;;;;26.70;94.70;;;;;;5104965;28;19904;-42
2022/12/06 05:30:01;;;;;;;;;;;26.70;94.70;;;;;;5107764;28;19911;-43
2022/12/06 05:32:27;;;;;;;;;;;26.70;94.60;;;;;;5113693;28;19908;-38
2022/12/06 05:34:53;;;;;;;;;;;26.60;94.60;;;;;;5104667;28;19904;-39
2022/12/06 05:37:19;;;;;;;;;;;26.60;94.60;;;;;;5104751;28;19943;-41
2022/12/06 05:39:45;;;;;;;;;;;26.60;94.70;;;;;;5104544;28;20029;-44
2022/12/06 05:42:12;;;;;;;;;;;26.60;94.70;;;;;;5104944;28;19927;-40
2022/12/06 05:44:38;;;;;;;;;;;26.60;94.60;;;;;;5104844;28;20018;-41
2022/12/06 05:47:04;;;;;;;;;;;26.60;94.60;;;;;;5104269;28;19970;-39
2022/12/06 05:49:30;;;;;;;;;;;26.60;94.70;;;;;;5104596;28;19952;-45
2022/12/06 05:51:56;;;;;;;;;;;26.70;94.80;;;;;;5104297;28;19928;-44
2022/12/06 05:54:22;;;;;;;;;;;26.70;94.80;;;;;;5104309;28;19948;-40
2022/12/06 05:56:49;;;;;;;;;;;26.70;94.80;;;;;;5104583;28;19911;-45
2022/12/06 05:59:15;;;;;;;;;;;26.70;94.90;;;;;;5104309;28;19916;-48
2022/12/06 06:01:41;;;;;;;;;;;26.70;94.80;;;;;;5104574;28;19911;-39
2022/12/06 06:04:07;;;;;;;;;;;26.70;94.80;;;;;;5104876;28;19947;-42
2022/12/06 06:06:33;;;;;;;;;;;26.70;94.90;;;;;;5104444;28;20184;-41
2022/12/06 06:09:00;;;;;;;;;;;26.70;95.00;;;;;;5104667;28;20176;-39
2022/12/06 06:11:26;;;;;;;;;;;26.70;94.90;;;;;;5103960;28;19901;-45
2022/12/06 06:13:53;;;;;;;;;;;26.70;94.90;;;;;;5104649;28;19912;-45
2022/12/06 06:16:19;;;;;;;;;;;26.70;94.90;;;;;;5104505;28;20088;-42
2022/12/06 06:18:46;;;;;;;;;;;26.70;94.90;;;;;;5110820;28;19923;-42
2022/12/06 06:21:12;;;;;;;;;;;26.70;95.00;;;;;;5121025;28;20234;-45
2022/12/06 06:23:39;;;;;;;;;;;26.70;94.90;;;;;;5116562;28;19908;-44
2022/12/06 06:26:06;;;;;;;;;;;26.70;95.00;;;;;;5119683;28;19939;-44
2022/12/06 06:28:32;;;;;;;;;;;26.70;94.90;;;;;;5108293;28;19904;-46
2022/12/06 06:31:01;;;;;;;;;;;26.70;94.80;;;;;;5108113;28;19905;-40
2022/12/06 06:33:27;;;;;;;;;;;26.70;94.60;;;;;;5108198;28;19912;-38
2022/12/06 06:35:54;;;;;;;;;;;26.70;94.70;;;;;;5108078;28;20200;-50
2022/12/06 06:38:20;;;;;;;;;;;26.70;94.80;;;;;;5108246;28;19908;-44
2022/12/06 06:40:46;;;;;;;;;;;26.70;94.70;;;;;;5107919;28;19945;-42
2022/12/06 06:43:19;;;;;;;;;;;26.70;94.60;;;;;;5108272;28;19911;-42
2022/12/06 06:45:52;;;;;;;;;;;26.70;94.60;;;;;;5107711;28;19911;-43
2022/12/06 06:48:18;;;;;;;;;;;26.70;94.70;;;;;;5107958;28;19908;-47
2022/12/06 06:50:45;;;;;;;;;;;26.70;94.70;;;;;;5107734;28;20127;-44
2022/12/06 06:53:11;;;;;;;;;;;26.70;94.70;;;;;;5099521;28;19908;-46
2022/12/06 06:55:37;;;;;;;;;;;26.70;94.80;;;;;;5107543;28;20211;-40
2022/12/06 06:58:04;;;;;;;;;;;26.70;94.70;;;;;;5107939;28;19908;-45
2022/12/06 07:00:32;;;;;;;;;;;26.70;94.80;;;;;;5107494;28;20126;-39
2022/12/06 07:02:58;;;;;;;;;;;26.70;94.70;;;;;;5107814;28;19908;-39
2022/12/06 07:05:24;;;;;;;;;;;26.70;94.70;;;;;;5109320;28;19911;-40
2022/12/06 07:07:51;;;;;;;;;;;26.70;94.60;;;;;;5114849;28;19908;-41
2022/12/06 07:10:17;;;;;;;;;;;26.60;94.60;;;;;;5127660;28;19978;-41
2022/12/06 07:12:43;;;;;;;;;;;26.60;94.60;;;;;;5127865;28;20179;-42
2022/12/06 07:15:10;;;;;;;;;;;26.60;94.60;;;;;;5127760;28;20192;-39
2022/12/06 07:17:36;;;;;;;;;;;26.60;94.60;;;;;;5127684;28;19907;-39
2022/12/06 07:20:02;;;;;;;;;;;26.60;94.60;;;;;;5127833;28;19927;-39
2022/12/06 07:22:29;;;;;;;;;;;26.60;94.60;;;;;;5127833;28;19908;-42
2022/12/06 07:24:55;;;;;;;;;;;26.60;94.60;;;;;;5121532;28;19900;-40
2022/12/06 07:27:21;;;;;;;;;;;26.60;94.60;;;;;;5107090;28;19912;-41
2022/12/06 07:29:47;;;;;;;;;;;26.60;94.60;;;;;;5106369;28;19900;-41
2022/12/06 07:32:13;;;;;;;;;;;26.60;94.60;;;;;;5107001;28;20088;-46
2022/12/06 07:34:39;;;;;;;;;;;26.60;94.60;;;;;;5106856;28;19943;-38
2022/12/06 07:37:06;;;;;;;;;;;26.60;94.60;;;;;;5112312;28;19904;-39
2022/12/06 07:39:32;;;;;;;;;;;26.60;94.50;;;;;;5113071;28;19944;-41
2022/12/06 07:45:00;;;;;;;;;;;26.60;94.60;;;;;;5106994;28;19907;-38
2022/12/06 07:47:31;;;;;;;;;;;26.60;94.80;;;;;;5123125;28;19911;-43
2022/12/06 07:49:57;;;;;;;;;;;26.60;94.90;;;;;;5121546;28;19921;-45
2022/12/06 07:52:23;;;;;;;;;;;26.60;95.10;;;;;;5106591;28;19979;-39
2022/12/06 07:54:49;;;;;;;;;;;26.60;94.90;;;;;;5106519;28;20163;-43
2022/12/06 07:57:16;;;;;;;;;;;26.60;94.90;;;;;;5106656;28;19915;-40
2022/12/06 07:59:42;;;;;;;;;;;26.60;94.90;;;;;;5106040;28;19912;-38
2022/12/06 08:02:15;;;;;;;;;;;26.60;95.00;;;;;;5106712;28;19900;-39
2022/12/06 08:04:41;;;;;;;;;;;26.60;95.00;;;;;;5106309;28;19925;-40
2022/12/06 08:07:08;;;;;;;;;;;26.60;95.00;;;;;;5106224;28;19906;-37
2022/12/06 08:09:34;;;;;;;;;;;26.60;95.00;;;;;;5106199;28;19975;-40
2022/12/06 08:12:00;;;;;;;;;;;26.60;95.00;;;;;;5106189;28;19967;-41
2022/12/06 08:14:26;;;;;;;;;;;26.60;94.90;;;;;;5106035;28;20203;-44
2022/12/06 08:16:52;;;;;;;;;;;26.50;94.90;;;;;;5120973;28;19904;-37
2022/12/06 08:19:19;;;;;;;;;;;26.50;95.00;;;;;;5100632;28;19903;-40
2022/12/06 08:21:45;;;;;;;;;;;26.50;95.00;;;;;;5126652;28;20231;-39
2022/12/06 08:24:11;;;;;;;;;;;26.50;94.90;;;;;;5128446;28;19984;-38
2022/12/06 08:26:37;;;;;;;;;;;26.40;95.00;;;;;;5126734;28;19904;-40
2022/12/06 08:29:03;;;;;;;;;;;26.40;95.10;;;;;;5126765;28;19915;-47
2022/12/06 08:31:30;;;;;;;;;;;26.40;95.10;;;;;;5126346;28;19908;-43
2022/12/06 08:33:57;;;;;;;;;;;26.40;95.10;;;;;;5126567;28;19947;-41
2022/12/06 08:36:23;;;;;;;;;;;26.40;95.20;;;;;;5126275;28;19952;-43
2022/12/06 08:38:51;;;;;;;;;;;26.40;95.20;;;;;;5126598;28;19903;-38
2022/12/06 08:44:02;;;;;;;;;;;26.40;95.20;;;;;;5126520;28;19942;-39
2022/12/06 08:46:29;;;;;;;;;;;26.40;95.20;;;;;;5125903;28;19904;-37
2022/12/06 08:48:55;;;;;;;;;;;26.30;95.20;;;;;;5126531;28;19911;-42
2022/12/06 08:51:22;;;;;;;;;;;26.30;95.20;;;;;;5125839;28;19903;-40
2022/12/06 08:53:48;;;;;;;;;;;26.30;95.30;;;;;;5126180;28;19918;-38
2022/12/06 08:56:14;;;;;;;;;;;26.30;95.30;;;;;;5125853;28;19921;-42
2022/12/06 08:58:40;;;;;;;;;;;26.30;95.40;;;;;;5125993;28;20199;-43
2022/12/06 09:01:10;;;;;;;;;;;26.30;95.40;;;;;;5125534;28;19919;-41
2022/12/06 09:03:36;;;;;;;;;;;26.30;95.40;;;;;;5126039;28;19922;-41
2022/12/06 09:06:02;;;;;;;;;;;26.30;95.40;;;;;;5125478;28;19903;-41
2022/12/06 09:08:29;;;;;;;;;;;26.30;95.30;;;;;;5126030;28;19904;-40
2022/12/06 09:10:55;;;;;;;;;;;26.30;95.40;;;;;;5125668;28;19957;-41
2022/12/06 09:13:21;;;;;;;;;;;26.30;95.40;;;;;;5125668;28;19956;-43
2022/12/06 09:15:47;;;;;;;;;;;26.30;95.40;;;;;;5125480;28;20008;-43
2022/12/06 09:18:13;;;;;;;;;;;26.30;95.40;;;;;;5125708;28;19943;-42
2022/12/06 09:20:40;;;;;;;;;;;26.30;95.40;;;;;;5125499;28;19934;-44
2022/12/06 09:23:06;;;;;;;;;;;26.30;95.40;;;;;;5125698;28;20085;-38
2022/12/06 09:25:33;;;;;;;;;;;26.30;95.40;;;;;;5125349;28;19900;-44
2022/12/06 09:27:59;;;;;;;;;;;26.30;95.40;;;;;;5125512;28;19910;-41
2022/12/06 09:30:25;;;;;;;;;;;26.20;95.50;;;;;;5125175;28;19910;-41
2022/12/06 09:32:52;;;;;;;;;;;26.20;95.40;;;;;;5125361;28;19981;-45
2022/12/06 09:35:18;;;;;;;;;;;26.20;95.40;;;;;;5125138;28;19910;-43
2022/12/06 09:37:45;;;;;;;;;;;26.20;95.40;;;;;;5125218;28;19940;-43
2022/12/06 09:40:16;;;;;;;;;;;26.20;95.40;;;;;;5108996;28;19904;-55
2022/12/06 09:42:57;;;;;;;;;;;26.20;95.40;;;;;;5125047;28;19983;-45
2022/12/06 09:45:34;;;;;;;;;;;26.20;95.40;;;;;;5124785;28;19903;-41
2022/12/06 09:48:15;;;;;;;;;;;26.20;95.40;;;;;;5125012;28;19947;-46
2022/12/06 09:50:54;;;;;;;;;;;26.10;95.40;;;;;;5125236;28;19978;-40
2022/12/06 09:53:35;;;;;;;5.15;2.20;;;26.20;95.40;;;;;;5124205;28;19926;-42
2022/12/06 09:56:33;;;;;;;5.87;2.10;;;26.20;95.30;;;;;;5111386;28;20084;-42
2022/12/06 09:59:32;;;;;;;7.15;2.15;;;26.20;95.30;;;;;;5104199;28;20043;-42
2022/12/06 10:02:04;;;;;;;5.47;2.67;;;26.10;95.00;;;;;;5065351;28;20316;-39
2022/12/06 10:04:40;;;;;;;;;;;26.10;94.80;;;;;;5114053;28;20027;-41
2022/12/06 10:07:11;;;;;;;4.47;2.03;;;26.10;94.70;;;;;;5124444;28;19923;-42
2022/12/06 10:09:55;;;;;;;5.00;2.20;;;26.10;94.80;;;;;;5124321;28;20039;-40
2022/12/06 10:12:29;;;;;;;3.42;2.40;;;26.10;94.60;;;;;;5124126;28;20034;-39
2022/12/06 10:15:07;;;;;;;4.38;2.40;;;26.10;94.50;;;;;;5123676;28;20051;-41
2022/12/06 10:17:59;;;;;;;7.18;2.63;;;26.10;94.50;;;;;;5118397;28;20271;-40
2022/12/06 10:20:38;;;;;;;4.55;2.20;;;26.10;94.50;;;;;;5128008;28;20137;-39
2022/12/06 10:23:23;;;;;;;5.63;2.38;;;26.10;94.40;;;;;;5113308;28;20067;-42
2022/12/06 10:26:06;;;;;;;6.63;2.53;;;26.10;94.40;;;;;;5105327;28;20036;-40
2022/12/06 10:28:52;;;;;;;6.10;2.40;;;26.10;94.30;;;;;;5104129;28;20024;-40
2022/12/06 10:31:21;;;;;;;4.28;2.38;;;26.10;94.30;;;;;;5103543;28;20040;-44
2022/12/06 10:34:16;;;;;;;7.55;2.47;;;26.10;94.30;;;;;;5104121;28;20020;-44
2022/12/06 10:37:31;;;;;;;9.45;4.53;;;26.10;94.30;;;;;;5105084;28;20102;-39
2022/12/06 10:40:19;;;;;;;7.25;3.40;;;26.10;94.30;;;;;;5114374;28;20035;-44
2022/12/06 10:43:07;;;;;;;6.13;3.60;;;26.10;94.20;;;;;;5117217;28;20236;-48
2022/12/06 10:48:46;;;;;;;4.75;2.30;;;26.10;94.20;;;;;;5124113;28;20042;-45
2022/12/06 10:51:24;;;;;;;6.18;2.70;;;26.10;94.20;;;;;;5123653;28;20016;-39
2022/12/06 10:53:58;;;;;;;8.27;2.80;;;26.10;94.20;;;;;;5122418;28;20035;-42
2022/12/06 10:56:37;;;;;;;5.20;2.63;;;26.10;94.20;;;;;;5103418;28;20336;-44
2022/12/06 10:59:14;;;;;;;;;;;26.10;94.20;;;;;;5109093;28;20060;-40
2022/12/06 11:01:41;;;;;;;;;;;26.10;94.20;;;;;;5107490;28;19908;-50
2022/12/06 11:04:16;;;;;;;4.80;2.50;;;26.10;94.30;;;;;;5116941;28;20192;-44
2022/12/06 11:06:45;;;;;;;;;;;26.10;94.20;;;;;;5121433;28;20060;-39
2022/12/06 11:09:34;;;;;;;;;;;26.10;94.30;;;;;;5128372;28;19914;-40
2022/12/06 11:12:15;;;;;;;;;;;26.10;94.50;;;;;;5127734;28;19970;-41
2022/12/06 11:14:45;;;;;;;;;;;26.10;94.40;;;;;;5127896;28;19988;-40
2022/12/06 11:17:15;;;;;;;;;;;26.10;94.40;;;;;;5124722;28;19971;-44
2022/12/06 11:19:44;;;;;;;;;;;26.10;94.30;;;;;;5120314;28;19907;-41
2022/12/06 11:22:26;;;;;;;;;;;26.10;94.30;;;;;;5115575;28;19943;-44
2022/12/06 11:25:01;;;;;;;;;;;26.10;94.30;;;;;;5113827;28;19906;-43
2022/12/06 11:27:33;;;;;;;;;;;26.10;94.40;;;;;;5114045;28;19915;-42
2022/12/06 11:30:01;;;;;;;;;;;26.10;94.20;;;;;;5123651;28;19904;-40
2022/12/06 11:32:27;;;;;;;;;;;26.10;94.30;;;;;;5118813;28;19908;-40
2022/12/06 11:34:57;;;;;;;;;;;26.10;94.30;;;;;;5114913;28;19903;-43
2022/12/06 11:37:26;;;;;;;;;;;26.20;94.30;;;;;;5127394;28;19907;-39
2022/12/06 11:39:55;;;;;;;;;;;26.10;94.10;;;;;;5109277;28;19900;-39
2022/12/06 11:42:24;;;;;;;;;;;26.20;93.90;;;;;;5106879;28;19914;-38
2022/12/06 11:45:13;;;;;;;;;;;26.20;94.00;;;;;;5088757;28;19972;-42
2022/12/06 11:47:39;;;;;;;;;;;26.20;94.10;;;;;;5096665;28;20176;-44
2022/12/06 11:50:14;;;;;;;;;;;26.20;94.10;;;;;;5114030;28;19903;-45
2022/12/06 11:52:47;;;;;;;;;;;26.20;94.10;;;;;;5109595;28;20114;-38
2022/12/06 11:55:18;;;;;;;;;;;26.20;94.20;;;;;;5101018;28;19908;-43
2022/12/06 11:57:55;;;;;;;;;;;26.30;94.20;;;;;;5108916;28;19903;-43
2022/12/06 12:00:22;;;;;;;;;;;26.20;94.00;;;;;;5118904;28;19912;-44
2022/12/06 12:02:49;;;;;;;;;;;26.30;94.00;;;;;;5127100;28;19908;-39
2022/12/06 12:05:29;;;;;;;;;;;26.30;93.60;;;;;;5108424;28;20115;-39
2022/12/06 12:07:55;;;;;;;;;;;26.30;93.80;;;;;;5112789;27;19986;-39
2022/12/06 12:10:37;;;;;;;;;;;26.30;93.90;;;;;;5119216;28;19919;-48
2022/12/06 12:16:26;;;;;;;;;;;26.40;94.00;;;;;;5106283;28;20154;-39
2022/12/06 12:19:00;;;;;;;;;;;26.40;94.10;;;;;;5064560;28;19917;-42
2022/12/06 12:21:29;;;;;;;;;;;26.50;94.10;;;;;;5125468;28;19916;-44
2022/12/06 12:23:56;;;;;;;;;;;26.50;94.10;;;;;;5119380;28;19940;-37
2022/12/06 12:26:23;;;;;;;;;;;26.60;94.10;;;;;;5088641;28;19911;-45
2022/12/06 12:29:08;;;;;;;;;;;26.60;94.10;;;;;;5123196;28;20080;-38
2022/12/06 12:31:45;;;;;;;;;;;26.60;94.00;;;;;;5111710;28;19900;-44
2022/12/06 12:34:30;;;;;;;;;;;26.60;94.00;;;;;;5106307;28;19919;-41
2022/12/06 12:37:00;;;;;;;;;;;26.60;94.00;;;;;;5120393;28;19899;-42
2022/12/06 12:39:26;;;;;;;;;;;26.60;94.00;;;;;;5108018;28;19918;-41
2022/12/06 12:41:52;;;;;;;;;;;26.70;94.10;;;;;;5126047;28;20198;-38
2022/12/06 12:44:18;;;;;;;;;;;26.70;94.00;;;;;;5126532;28;19934;-39
2022/12/06 12:46:48;;;;;;;;;;;26.70;93.90;;;;;;5120890;28;19906;-45
2022/12/06 12:49:34;;;;;;;;;;;26.70;93.90;;;;;;5122486;28;19958;-39
2022/12/06 12:52:01;;;;;;;;;;;26.80;94.00;;;;;;5105004;28;20147;-40
2022/12/06 12:54:29;;;;;;;;;;;26.80;93.90;;;;;;5105430;28;19908;-48
2022/12/06 12:56:56;;;;;;;;;;;26.80;93.90;;;;;;5111875;28;19935;-40
2022/12/06 12:59:23;;;;;;;;;;;26.90;93.90;;;;;;5112231;28;19908;-44
2022/12/06 13:01:58;;;;;;;;;;;26.90;93.90;;;;;;5120239;28;19920;-41
2022/12/06 13:04:30;;;;;;;;;;;26.90;94.10;;;;;;5110161;28;19932;-40
2022/12/06 13:06:58;;;;;;;;;;;26.90;94.00;;;;;;5105026;28;19904;-42
2022/12/06 13:09:53;;;;;;;;;;;27.00;93.90;;;;;;5109009;28;19926;-43
2022/12/06 13:12:32;;;;;;;;;;;27.00;94.00;;;;;;5103907;28;19907;-42
2022/12/06 13:15:06;;;;;;;;;;;27.00;94.00;;;;;;5125627;28;19982;-40
2022/12/06 13:17:34;;;;;;;;;;;27.00;94.00;;;;;;5117738;28;19908;-40
2022/12/06 13:20:01;;;;;;;;;;;27.00;94.00;;;;;;5106532;28;20184;-40
2022/12/06 13:22:29;;;;;;;;;;;27.00;94.00;;;;;;5116761;28;19907;-43
2022/12/06 13:25:00;;;;;;;;;;;27.10;93.80;;;;;;5105126;28;19979;-45
2022/12/06 13:27:29;;;;;;;;;;;27.10;93.80;;;;;;5120403;28;19912;-39
2022/12/06 13:29:59;;;;;;;;;;;27.10;93.80;;;;;;5104965;28;19904;-44
2022/12/06 13:32:31;;;;;;;;;;;27.10;93.90;;;;;;5114461;27;19912;-43
2022/12/06 13:35:06;;;;;;;;;;;27.10;93.90;;;;;;5105055;28;19908;-40
2022/12/06 13:37:33;;;;;;;;;;;27.10;93.80;;;;;;5124781;28;19916;-39
2022/12/06 13:40:00;;;;;;;;;;;27.20;93.70;;;;;;5125244;28;19908;-46
2022/12/06 13:42:36;;;;;;;;;;;27.20;93.50;;;;;;5125139;28;19970;-41
2022/12/06 13:45:04;;;;;;;;;;;27.20;93.50;;;;;;5125228;28;19903;-41
2022/12/06 13:47:30;;;;;;;;;;;27.20;93.30;;;;;;5122583;28;19974;-38
2022/12/06 13:50:05;;;;;;;;;;;27.20;93.10;;;;;;5104252;28;19919;-39
2022/12/06 13:52:46;;;;;;;;;;;27.10;92.90;;;;;;5113256;28;19979;-40
2022/12/06 13:55:25;;;;;;;;;;;27.20;93.10;;;;;;5116820;28;20215;-41
2022/12/06 13:58:16;;;;;;;;;;;27.20;92.90;;;;;;5104499;28;20115;-40
2022/12/06 14:00:42;;;;;;;;;;;27.20;92.90;;;;;;5104163;28;20200;-41
2022/12/06 14:03:19;;;;;;;;;;;27.20;92.90;;;;;;5119784;28;19919;-42
2022/12/06 14:05:55;;;;;;;;;;;27.30;92.80;;;;;;5124919;28;19927;-40
2022/12/06 14:08:24;;;;;;;;;;;27.30;92.80;;;;;;5124852;28;19908;-49
2022/12/06 14:10:51;;;;;;;;;;;27.30;92.70;;;;;;5124798;28;19903;-39
2022/12/06 14:13:18;;;;;;;;;;;27.30;92.80;;;;;;5125047;28;20237;-43
2022/12/06 14:15:45;;;;;;;;;;;27.30;92.80;;;;;;5124890;28;19899;-44
2022/12/06 14:18:17;;;;;;;;;;;27.30;92.90;;;;;;5125031;28;20069;-44
2022/12/06 14:20:43;;;;;;;;;;;27.30;92.80;;;;;;5124558;28;19966;-42
2022/12/06 14:23:21;;;;;;;;;;;27.30;92.70;;;;;;5117558;28;19916;-41
2022/12/06 14:25:47;;;;;;;;;;;27.40;92.80;;;;;;5104275;28;19929;-43
2022/12/06 14:28:13;;;;;;;;;;;27.40;92.50;;;;;;5104377;28;19985;-45
2022/12/06 14:30:40;;;;;;;;;;;27.40;92.50;;;;;;5104140;28;20161;-38
2022/12/06 14:33:18;;;;;;;;;;;27.50;92.70;;;;;;5104402;28;19908;-37
2022/12/06 14:35:52;;;;;;;;;;;27.50;92.30;;;;;;5123522;28;19911;-41
2022/12/06 14:38:28;;;;;;;;;;;27.50;92.30;;;;;;5124814;28;20077;-43
2022/12/06 14:43:41;;;;;;;;;;;27.60;92.60;;;;;;5128843;28;20207;-40
2022/12/06 14:46:10;;;;;;;;;;;27.60;92.40;;;;;;5128424;28;20130;-39
2022/12/06 14:51:23;;;;;;;;;;;27.60;92.40;;;;;;5128336;28;19946;-45
2022/12/06 14:53:49;;;;;;;;;;;27.70;92.40;;;;;;5128268;28;19912;-42
2022/12/06 14:56:22;;;;;;;;;;;27.70;92.30;;;;;;5114478;28;19945;-41
2022/12/06 14:58:48;;;;;;;;;;;27.70;92.60;;;;;;5089550;28;19914;-39
2022/12/06 15:01:15;;;;;;;;;;;27.80;91.90;;;;;;5108191;28;19908;-47
2022/12/06 15:03:42;;;;;;;;;;;27.80;92.10;;;;;;5119053;28;20102;-39
2022/12/06 15:06:12;;;;;;;;;;;27.80;91.80;;;;;;5128033;28;19900;-45
2022/12/06 15:08:40;;;;;;;;;;;27.80;90.70;;;;;;5126823;28;19952;-43